createdAt,value
2018-04-08T07:05:16.692Z,10.15
2018-04-08T07:07:45.160Z,9.55
2018-04-08T07:10:14.758Z,9.43
2018-04-08T07:12:47.928Z,10.03
2018-04-08T07:18:04.214Z,9.73
2018-04-08T07:23:24.621Z,9.87
2018-04-08T07:25:57.993Z,10.53
2018-04-08T07:28:26.262Z,9.90
2018-04-08T07:30:53.784Z,9.43
2018-04-08T07:33:22.198Z,9.73
2018-04-08T07:35:50.328Z,10.53
2018-04-08T07:38:18.647Z,10.93
2018-04-08T07:40:47.445Z,9.77
2018-04-08T07:43:17.193Z,10.10
2018-04-08T07:45:45.489Z,10.50
2018-04-08T07:48:13.029Z,10.27
2018-04-08T07:50:40.535Z,10.40
2018-04-08T07:53:08.037Z,9.67
2018-04-08T07:55:35.523Z,9.57
2018-04-08T07:58:03.026Z,9.53
2018-04-08T08:00:30.520Z,10.87
2018-04-08T08:02:59.023Z,10.97
2018-04-08T08:05:26.587Z,10.43
2018-04-08T08:07:54.016Z,9.80
2018-04-08T08:10:21.459Z,10.40
2018-04-08T08:12:49.659Z,9.87
2018-04-08T08:15:18.057Z,10.80
2018-04-08T08:17:45.486Z,9.90
2018-04-08T08:20:12.950Z,10.93
2018-04-08T08:22:40.389Z,10.60
2018-04-08T08:25:08.597Z,10.83
2018-04-08T08:52:52.949Z,11.80
2018-04-08T08:55:20.529Z,11.70
2018-04-08T08:57:47.982Z,11.90
2018-04-08T09:00:15.525Z,12.13
2018-04-08T09:02:42.969Z,12.30
2018-04-08T09:05:10.407Z,12.30
2018-04-08T09:07:37.840Z,11.93
2018-04-08T09:10:06.062Z,12.70
2018-04-08T09:12:33.513Z,12.30
2018-04-08T09:15:00.943Z,12.53
2018-04-08T09:17:28.393Z,12.83
2018-04-08T09:20:02.405Z,12.03
2018-04-08T09:25:34.374Z,12.27
2018-04-08T09:28:02.587Z,12.87
2018-04-08T09:30:30.018Z,12.93
2018-04-08T09:32:57.458Z,12.40
2018-04-08T09:35:25.663Z,12.53
2018-04-08T09:37:53.131Z,12.63
2018-04-08T09:40:20.616Z,12.77
2018-04-08T09:42:48.937Z,13.03
2018-04-08T09:45:16.382Z,24.93
2018-04-08T09:47:43.807Z,14.77
2018-04-08T09:50:11.238Z,13.70
2018-04-08T09:52:39.109Z,12.57
2018-04-08T09:55:06.527Z,12.30
2018-04-08T09:57:38.434Z,11.60
2018-04-08T10:00:05.865Z,11.47
2018-04-08T10:02:39.923Z,12.13
2018-04-08T10:05:08.141Z,12.00
2018-04-08T10:07:35.590Z,11.90
2018-04-08T10:10:03.027Z,11.90
2018-04-08T10:12:30.449Z,12.27
2018-04-08T10:14:58.654Z,12.30
2018-04-08T10:20:29.222Z,12.67
2018-04-08T10:22:56.736Z,11.70
2018-04-08T10:25:24.941Z,11.93
2018-04-08T10:27:52.435Z,15.30
2018-04-08T10:36:02.347Z,12.03
2018-04-08T10:38:29.781Z,11.50
2018-04-08T10:40:57.226Z,12.33
2018-04-08T10:43:24.719Z,12.13
2018-04-08T10:45:52.935Z,13.17
2018-04-08T10:48:20.386Z,12.80
2018-04-08T10:50:47.859Z,13.30
2018-04-08T10:53:15.298Z,12.90
2018-04-08T10:55:42.734Z,12.87
2018-04-08T10:58:10.190Z,12.60
2018-04-08T11:00:37.665Z,12.03
2018-04-08T11:03:05.113Z,12.23
2018-04-08T11:05:32.547Z,12.00
2018-04-08T11:08:00.770Z,11.80
2018-04-08T11:10:28.221Z,12.00
2018-04-08T11:12:55.683Z,12.13
2018-04-08T11:15:23.118Z,11.80
2018-04-08T11:17:50.546Z,12.40
2018-04-08T11:20:18.750Z,12.70
2018-04-08T11:22:46.179Z,12.47
2018-04-08T11:25:14.398Z,12.50
2018-04-08T11:27:41.832Z,11.73
2018-04-08T11:30:09.266Z,12.33
2018-04-08T11:32:36.721Z,11.83
2018-04-08T11:35:04.172Z,12.60
2018-04-08T11:37:32.373Z,12.27
2018-04-08T11:39:59.813Z,11.90
2018-04-08T11:42:27.249Z,11.17
2018-04-08T11:44:55.461Z,11.60
2018-04-08T11:47:22.890Z,11.17
2018-04-08T11:49:50.370Z,10.20
2018-04-08T11:52:18.179Z,9.40
2018-04-08T11:54:45.634Z,8.40
2018-04-08T11:57:13.052Z,7.87
2018-04-08T11:59:40.493Z,7.67
2018-04-08T12:02:07.960Z,8.23
2018-04-08T12:04:35.383Z,7.43
2018-04-08T12:07:03.582Z,8.10
2018-04-08T12:09:31.045Z,7.20
2018-04-08T12:11:58.476Z,7.50
2018-04-08T12:14:26.662Z,6.47
2018-04-08T12:16:54.111Z,6.10
2018-04-08T12:19:21.554Z,6.13
2018-04-08T12:21:49.745Z,6.40
2018-04-08T12:24:17.206Z,10.23
2018-04-08T12:26:44.760Z,9.33
2018-04-08T12:29:12.209Z,9.03
2018-04-08T12:31:40.677Z,8.50
2018-04-08T12:34:08.862Z,7.40
2018-04-08T12:36:36.299Z,5.37
2018-04-08T12:39:04.519Z,6.30
2018-04-08T12:41:31.946Z,6.60
2018-04-08T12:43:59.388Z,6.47
2018-04-08T12:46:27.585Z,6.30
2018-04-08T12:48:55.034Z,5.53
2018-04-08T12:51:22.486Z,5.37
2018-04-08T12:53:49.921Z,5.00
2018-04-08T12:56:18.114Z,5.20
2018-04-08T12:58:45.569Z,5.20
2018-04-08T13:01:13.451Z,6.20
2018-04-08T13:03:40.889Z,9.67
2018-04-08T13:06:08.361Z,8.93
2018-04-08T13:08:35.787Z,8.13
2018-04-08T13:11:04.007Z,6.80
2018-04-08T13:13:31.465Z,7.80
2018-04-08T13:15:58.933Z,10.47
2018-04-08T13:18:26.378Z,9.77
2018-04-08T13:20:53.822Z,10.30
2018-04-08T13:23:21.267Z,9.73
2018-04-08T13:25:48.723Z,10.17
2018-04-08T13:28:16.171Z,10.63
2018-04-08T13:30:43.655Z,10.53
2018-04-08T13:33:11.849Z,10.53
2018-04-08T13:35:39.287Z,9.80
2018-04-08T13:38:06.729Z,9.63
2018-04-08T13:40:34.166Z,10.50
2018-04-08T13:43:01.777Z,10.37
2018-04-08T13:45:29.233Z,11.00
2018-04-08T13:47:56.666Z,10.67
2018-04-08T13:50:24.106Z,10.60
2018-04-08T13:52:51.550Z,10.43
2018-04-08T13:55:19.022Z,10.40
2018-04-08T13:57:46.464Z,10.27
2018-04-08T14:00:13.906Z,10.60
2018-04-08T14:02:41.341Z,9.93
2018-04-08T14:05:09.546Z,9.60
2018-04-08T14:07:36.977Z,9.20
2018-04-08T14:10:05.177Z,8.43
2018-04-08T14:12:32.729Z,8.30
2018-04-08T14:15:00.168Z,9.43
2018-04-08T14:17:28.368Z,8.57
2018-04-08T14:19:55.827Z,8.40
2018-04-08T14:22:23.282Z,9.13
2018-04-08T14:24:50.735Z,9.03
2018-04-08T14:27:18.165Z,8.63
2018-04-08T14:29:46.377Z,9.60
2018-04-08T14:32:13.822Z,8.40
2018-04-08T14:34:41.257Z,8.70
2018-04-08T14:37:08.699Z,8.47
2018-04-08T14:39:36.894Z,8.90
2018-04-08T14:42:04.366Z,8.30
2018-04-08T14:44:31.799Z,8.87
2018-04-08T14:46:59.233Z,8.77
2018-04-08T14:49:26.667Z,9.13
2018-04-08T14:51:54.149Z,8.70
2018-04-08T14:54:21.553Z,9.00
2018-04-08T14:56:49.001Z,8.90
2018-04-08T14:59:16.437Z,8.37
2018-04-08T15:01:46.665Z,7.90
2018-04-08T15:04:12.066Z,8.90
2018-04-08T15:06:39.506Z,8.83
2018-04-08T15:09:07.709Z,8.97
2018-04-08T15:11:35.142Z,8.30
2018-04-08T15:14:02.583Z,8.87
2018-04-08T15:16:30.779Z,8.33
2018-04-08T15:18:58.219Z,8.07
2018-04-08T15:21:26.420Z,8.83
2018-04-08T15:23:53.860Z,8.90
2018-04-08T15:26:21.310Z,8.60
2018-04-08T15:28:49.510Z,9.17
2018-04-08T15:31:16.955Z,8.70
2018-04-08T15:33:44.402Z,9.03
2018-04-08T15:36:11.846Z,9.03
2018-04-08T15:38:40.046Z,8.53
2018-04-08T15:41:07.478Z,9.13
2018-04-08T15:43:35.691Z,9.67
2018-04-08T15:46:03.135Z,8.43
2018-04-08T15:48:30.566Z,9.87
2018-04-08T15:50:57.994Z,9.63
2018-04-08T15:53:25.446Z,10.40
2018-04-08T15:55:52.886Z,11.47
2018-04-08T15:58:20.354Z,11.60
2018-04-08T16:00:47.789Z,10.87
2018-04-08T16:03:15.218Z,10.60
2018-04-08T16:05:42.659Z,10.83
2018-04-08T16:08:10.114Z,11.13
2018-04-08T16:10:38.302Z,10.47
2018-04-08T16:13:05.760Z,10.90
2018-04-08T16:15:33.214Z,10.00
2018-04-08T16:18:00.655Z,11.60
2018-04-08T16:20:28.086Z,11.43
2018-04-08T16:22:56.293Z,10.97
2018-04-08T16:25:23.723Z,11.60
2018-04-08T16:27:51.957Z,11.17
2018-04-08T16:30:19.384Z,11.60
2018-04-08T16:32:46.805Z,11.27
2018-04-08T16:35:15.014Z,11.30
2018-04-08T16:37:42.469Z,11.53
2018-04-08T16:40:09.901Z,11.57
2018-04-08T16:42:38.101Z,11.23
2018-04-08T16:45:05.539Z,10.47
2018-04-08T16:47:32.982Z,10.77
2018-04-08T16:50:01.227Z,10.67
2018-04-08T16:52:28.680Z,11.00
2018-04-08T16:54:56.112Z,10.17
2018-04-08T16:57:23.551Z,10.63
2018-04-08T16:59:50.981Z,11.70
2018-04-08T17:02:18.421Z,10.33
2018-04-08T17:04:45.849Z,9.20
2018-04-08T17:07:13.320Z,8.93
2018-04-08T17:09:40.750Z,8.87
2018-04-08T17:12:08.179Z,8.43
2018-04-08T17:14:35.611Z,8.30
2018-04-08T17:17:03.811Z,9.30
2018-04-08T17:19:31.238Z,9.27
2018-04-08T17:21:59.437Z,9.07
2018-04-08T17:24:27.573Z,8.63
2018-04-08T17:26:55.007Z,8.67
2018-04-08T17:29:22.468Z,8.67
2018-04-08T17:31:49.941Z,8.37
2018-04-08T17:34:17.367Z,9.17
2018-04-08T17:36:44.800Z,8.83
2018-04-08T17:39:12.242Z,8.70
2018-04-08T17:41:39.677Z,9.20
2018-04-08T17:44:07.133Z,9.13
2018-04-08T17:46:35.483Z,8.83
2018-04-08T17:49:03.704Z,8.50
2018-04-08T17:51:31.137Z,9.73
2018-04-08T17:53:59.346Z,9.07
2018-04-08T17:56:26.789Z,8.77
2018-04-08T17:58:54.244Z,8.80
2018-04-08T18:01:21.687Z,10.27
2018-04-08T18:03:49.136Z,8.93
2018-04-08T18:06:17.330Z,8.43
2018-04-08T18:08:44.785Z,8.57
2018-04-08T18:11:12.245Z,10.07
2018-04-08T18:13:39.750Z,9.20
2018-04-08T18:16:07.961Z,12.00
2018-04-08T18:18:35.413Z,10.90
2018-04-08T18:21:02.931Z,11.60
2018-04-08T18:23:30.358Z,12.47
2018-04-08T18:25:57.795Z,12.13
2018-04-08T18:28:25.302Z,10.50
2018-04-08T18:30:53.858Z,11.70
2018-04-08T18:33:22.211Z,10.60
2018-04-08T18:35:49.649Z,10.87
2018-04-08T18:38:17.102Z,10.77
2018-04-08T18:40:44.546Z,11.50
2018-04-08T18:43:12.762Z,9.37
2018-04-08T18:45:40.211Z,10.03
2018-04-08T18:48:07.663Z,10.30
2018-04-08T18:50:35.109Z,9.77
2018-04-08T18:53:02.558Z,12.00
2018-04-08T18:55:29.999Z,13.30
2018-04-08T18:57:58.245Z,9.13
2018-04-08T19:00:25.707Z,11.07
2018-04-08T19:02:53.142Z,10.70
2018-04-08T19:05:20.574Z,11.37
2018-04-08T19:07:48.018Z,14.43
2018-04-08T19:10:15.442Z,16.53
2018-04-08T19:12:43.793Z,10.33
2018-04-08T19:15:17.152Z,13.30
2018-04-08T19:17:50.448Z,22.93
2018-04-08T19:20:17.984Z,17.87
2018-04-08T19:22:45.419Z,24.17
2018-04-08T19:25:12.862Z,19.13
2018-04-08T19:27:40.301Z,16.33
2018-04-08T19:30:13.407Z,13.10
2018-04-08T19:32:40.837Z,13.70
2018-04-08T19:35:08.284Z,13.30
2018-04-08T19:37:35.726Z,11.73
2018-04-08T19:40:03.166Z,12.33
2018-04-08T19:42:30.602Z,13.60
2018-04-08T19:44:58.814Z,15.03
2018-04-08T19:47:26.257Z,15.63
2018-04-08T19:49:53.701Z,16.40
2018-04-08T19:52:21.898Z,14.90
2018-04-08T19:54:49.334Z,12.90
2018-04-08T19:57:16.839Z,11.93
2018-04-08T19:59:44.278Z,10.90
2018-04-08T20:02:11.742Z,11.57
2018-04-08T20:04:39.285Z,11.30
2018-04-08T20:07:06.719Z,11.20
2018-04-08T20:09:34.210Z,10.73
2018-04-08T20:12:01.642Z,10.77
2018-04-08T20:14:29.090Z,12.70
2018-04-08T20:16:56.547Z,12.03
2018-04-08T20:19:24.748Z,13.13
2018-04-08T20:21:52.185Z,14.53
2018-04-08T20:24:20.527Z,15.33
2018-04-08T20:26:48.737Z,13.53
2018-04-08T20:29:16.246Z,15.37
2018-04-08T20:31:43.709Z,13.90
2018-04-08T20:34:11.124Z,14.03
2018-04-08T20:36:38.557Z,13.37
2018-04-08T20:39:06.005Z,13.83
2018-04-08T20:41:33.437Z,12.87
2018-04-08T20:44:01.646Z,12.73
2018-04-08T20:46:29.091Z,12.70
2018-04-08T20:48:56.536Z,11.43
2018-04-08T20:51:23.972Z,12.03
2018-04-08T20:53:51.399Z,12.07
2018-04-08T20:56:18.836Z,11.63
2018-04-08T20:58:46.288Z,12.27
2018-04-08T21:01:13.725Z,12.57
2018-04-08T21:03:41.170Z,10.43
2018-04-08T21:06:08.629Z,12.57
2018-04-08T21:08:36.065Z,13.10
2018-04-08T21:11:04.269Z,10.90
2018-04-08T21:13:31.707Z,12.33
2018-04-08T21:15:59.153Z,11.00
2018-04-08T21:18:28.026Z,13.03
2018-04-08T21:20:55.461Z,12.90
2018-04-08T21:23:22.898Z,13.27
2018-04-08T21:25:50.347Z,12.93
2018-04-08T21:28:17.791Z,12.13
2018-04-08T21:30:45.247Z,13.13
2018-04-08T21:33:12.694Z,12.83
2018-04-08T21:35:40.146Z,15.33
2018-04-08T21:38:07.578Z,14.30
2018-04-08T21:40:35.809Z,13.73
2018-04-08T21:43:03.254Z,17.87
2018-04-08T21:45:30.703Z,15.13
2018-04-08T21:47:58.159Z,16.90
2018-04-08T21:50:25.616Z,15.40
2018-04-08T21:52:53.082Z,15.27
2018-04-08T21:55:20.502Z,14.30
2018-04-08T21:57:47.937Z,21.40
2018-04-08T22:00:15.385Z,14.20
2018-04-08T22:02:42.817Z,17.23
2018-04-08T22:05:10.268Z,15.17
2018-04-08T22:07:37.696Z,14.40
2018-04-08T22:10:05.133Z,14.77
2018-04-08T22:12:32.574Z,14.70
2018-04-08T22:15:00.798Z,14.83
2018-04-08T22:17:28.246Z,15.60
2018-04-08T22:19:55.688Z,15.07
2018-04-08T22:22:23.124Z,15.00
2018-04-08T22:24:51.329Z,13.87
2018-04-08T22:27:18.770Z,14.23
2018-04-08T22:29:46.241Z,14.77
2018-04-08T22:32:13.678Z,13.80
2018-04-08T22:34:41.133Z,15.50
2018-04-08T22:37:08.590Z,14.10
2018-04-08T22:39:36.036Z,14.33
2018-04-08T22:42:04.244Z,13.87
2018-04-08T22:44:31.699Z,13.30
2018-04-08T22:46:59.133Z,13.20
2018-04-08T22:49:26.590Z,13.80
2018-04-08T22:51:54.787Z,13.07
2018-04-08T22:54:22.234Z,13.93
2018-04-08T22:56:49.688Z,13.20
2018-04-08T22:59:17.144Z,13.70
2018-04-08T23:01:44.596Z,14.37
2018-04-08T23:04:12.047Z,14.10
2018-04-08T23:06:39.499Z,13.37
2018-04-08T23:09:06.936Z,13.40
2018-04-08T23:11:35.149Z,13.20
2018-04-08T23:14:02.576Z,13.13
2018-04-08T23:16:30.014Z,14.00
2018-04-08T23:18:58.229Z,14.30
2018-04-08T23:21:25.662Z,14.37
2018-04-08T23:23:53.107Z,15.67
2018-04-08T23:26:21.312Z,13.90
2018-04-08T23:28:48.753Z,13.03
2018-04-08T23:31:16.186Z,14.30
2018-04-08T23:33:44.390Z,14.23
2018-04-08T23:36:11.837Z,14.83
2018-04-08T23:38:39.275Z,14.53
2018-04-08T23:41:07.486Z,14.23
2018-04-08T23:43:34.929Z,15.37
2018-04-08T23:46:03.029Z,14.33
2018-04-08T23:48:30.490Z,15.23
2018-04-08T23:50:57.930Z,15.87
2018-04-08T23:53:25.380Z,15.47
2018-04-08T23:55:52.837Z,15.47
2018-04-08T23:58:20.294Z,15.40
